sensor_id;sensor_type;location;lat;lon;timestamp;pressure;altitude;pressure_sealevel;temperature;humidity
68863;BME280;73819;51.460;-1.012;2023-11-21T00:00:23;101088.87;;;22.45;43.10
68863;BME280;73819;51.460;-1.012;2023-11-21T00:02:50;101089.21;;;23.01;42.91
68863;BME280;73819;51.460;-1.012;2023-11-21T00:05:16;101093.36;;;23.03;42.74
68863;BME280;73819;51.460;-1.012;2023-11-21T00:07:44;101100.58;;;22.73;42.71
68863;BME280;73819;51.460;-1.012;2023-11-21T00:10:12;101104.31;;;22.96;42.60
68863;BME280;73819;51.460;-1.012;2023-11-21T00:12:39;101108.54;;;22.87;42.76
68863;BME280;73819;51.460;-1.012;2023-11-21T00:15:08;101114.82;;;22.63;42.84
68863;BME280;73819;51.460;-1.012;2023-11-21T00:17:35;101114.33;;;22.91;42.82
68863;BME280;73819;51.460;-1.012;2023-11-21T00:20:02;101114.55;;;22.52;42.78
68863;BME280;73819;51.460;-1.012;2023-11-21T00:22:30;101117.92;;;22.68;42.45
68863;BME280;73819;51.460;-1.012;2023-11-21T00:24:56;101120.18;;;22.90;42.42
68863;BME280;73819;51.460;-1.012;2023-11-21T00:27:23;101121.61;;;22.93;42.49
68863;BME280;73819;51.460;-1.012;2023-11-21T00:29:50;101124.15;;;23.15;42.61
68863;BME280;73819;51.460;-1.012;2023-11-21T00:32:17;101131.80;;;22.77;42.61
68863;BME280;73819;51.460;-1.012;2023-11-21T00:34:43;101132.78;;;22.79;42.46
68863;BME280;73819;51.460;-1.012;2023-11-21T00:37:10;101134.70;;;22.94;42.39
68863;BME280;73819;51.460;-1.012;2023-11-21T00:39:38;101130.70;;;22.96;42.25
68863;BME280;73819;51.460;-1.012;2023-11-21T00:42:05;101130.00;;;22.97;42.36
68863;BME280;73819;51.460;-1.012;2023-11-21T00:44:32;101127.64;;;22.99;42.18
68863;BME280;73819;51.460;-1.012;2023-11-21T00:46:59;101127.61;;;22.76;42.16
68863;BME280;73819;51.460;-1.012;2023-11-21T00:49:26;101132.41;;;22.93;42.19
68863;BME280;73819;51.460;-1.012;2023-11-21T00:51:53;101134.53;;;23.17;42.01
68863;BME280;73819;51.460;-1.012;2023-11-21T00:54:20;101132.17;;;22.65;42.14
68863;BME280;73819;51.460;-1.012;2023-11-21T00:56:47;101138.18;;;22.72;42.12
68863;BME280;73819;51.460;-1.012;2023-11-21T00:59:14;101143.12;;;22.87;42.36
68863;BME280;73819;51.460;-1.012;2023-11-21T01:01:42;101145.60;;;22.98;42.27
68863;BME280;73819;51.460;-1.012;2023-11-21T01:04:09;101144.20;;;22.87;42.39
68863;BME280;73819;51.460;-1.012;2023-11-21T01:06:35;101147.53;;;22.91;42.33
68863;BME280;73819;51.460;-1.012;2023-11-21T01:09:02;101153.26;;;22.83;42.12
68863;BME280;73819;51.460;-1.012;2023-11-21T01:11:30;101157.97;;;22.91;42.34
68863;BME280;73819;51.460;-1.012;2023-11-21T01:13:57;101159.07;;;22.82;42.45
68863;BME280;73819;51.460;-1.012;2023-11-21T01:16:23;101163.90;;;23.12;42.61
68863;BME280;73819;51.460;-1.012;2023-11-21T01:18:50;101168.21;;;22.99;42.41
68863;BME280;73819;51.460;-1.012;2023-11-21T01:21:17;101171.28;;;22.91;42.43
68863;BME280;73819;51.460;-1.012;2023-11-21T01:23:43;101177.80;;;22.91;42.39
68863;BME280;73819;51.460;-1.012;2023-11-21T01:26:11;101181.31;;;22.97;42.41
68863;BME280;73819;51.460;-1.012;2023-11-21T01:28:38;101183.46;;;22.60;42.48
68863;BME280;73819;51.460;-1.012;2023-11-21T01:31:06;101185.43;;;22.82;42.27
68863;BME280;73819;51.460;-1.012;2023-11-21T01:33:32;101191.15;;;22.84;42.42
68863;BME280;73819;51.460;-1.012;2023-11-21T01:35:59;101193.46;;;22.91;42.29
68863;BME280;73819;51.460;-1.012;2023-11-21T01:38:26;101195.80;;;22.90;42.45
68863;BME280;73819;51.460;-1.012;2023-11-21T01:40:53;101201.75;;;22.59;42.35
68863;BME280;73819;51.460;-1.012;2023-11-21T01:43:19;101205.67;;;22.54;42.26
68863;BME280;73819;51.460;-1.012;2023-11-21T01:45:46;101207.75;;;23.11;42.19
68863;BME280;73819;51.460;-1.012;2023-11-21T01:48:14;101207.38;;;22.94;42.46
68863;BME280;73819;51.460;-1.012;2023-11-21T01:50:42;101210.21;;;22.94;42.41
68863;BME280;73819;51.460;-1.012;2023-11-21T01:53:10;101209.52;;;22.74;42.38
68863;BME280;73819;51.460;-1.012;2023-11-21T01:55:39;101211.56;;;22.51;42.41
68863;BME280;73819;51.460;-1.012;2023-11-21T01:58:07;101217.56;;;22.88;42.34
68863;BME280;73819;51.460;-1.012;2023-11-21T02:00:35;101219.31;;;22.92;42.33
68863;BME280;73819;51.460;-1.012;2023-11-21T02:03:02;101222.55;;;22.90;42.28
68863;BME280;73819;51.460;-1.012;2023-11-21T02:05:29;101225.26;;;22.94;42.40
68863;BME280;73819;51.460;-1.012;2023-11-21T02:07:56;101229.62;;;22.90;42.32
68863;BME280;73819;51.460;-1.012;2023-11-21T02:10:23;101235.06;;;22.99;42.30
68863;BME280;73819;51.460;-1.012;2023-11-21T02:12:51;101241.52;;;22.88;42.43
68863;BME280;73819;51.460;-1.012;2023-11-21T02:15:18;101244.12;;;22.86;42.46
68863;BME280;73819;51.460;-1.012;2023-11-21T02:17:46;101246.02;;;22.71;42.51
68863;BME280;73819;51.460;-1.012;2023-11-21T02:20:14;101246.58;;;23.23;42.41
68863;BME280;73819;51.460;-1.012;2023-11-21T02:22:41;101247.97;;;22.94;42.42
68863;BME280;73819;51.460;-1.012;2023-11-21T02:25:09;101246.36;;;23.03;42.49
68863;BME280;73819;51.460;-1.012;2023-11-21T02:27:35;101250.88;;;23.00;42.45
68863;BME280;73819;51.460;-1.012;2023-11-21T02:30:02;101258.49;;;22.72;42.50
68863;BME280;73819;51.460;-1.012;2023-11-21T02:32:30;101265.51;;;22.68;42.40
68863;BME280;73819;51.460;-1.012;2023-11-21T02:34:56;101267.16;;;22.90;42.40
68863;BME280;73819;51.460;-1.012;2023-11-21T02:37:23;101267.11;;;22.88;42.46
68863;BME280;73819;51.460;-1.012;2023-11-21T02:39:50;101269.19;;;22.90;42.49
68863;BME280;73819;51.460;-1.012;2023-11-21T02:42:17;101274.61;;;23.26;42.37
68863;BME280;73819;51.460;-1.012;2023-11-21T02:44:44;101275.14;;;22.99;42.53
68863;BME280;73819;51.460;-1.012;2023-11-21T02:47:10;101280.26;;;22.51;42.58
68863;BME280;73819;51.460;-1.012;2023-11-21T02:49:38;101278.92;;;22.69;42.60
68863;BME280;73819;51.460;-1.012;2023-11-21T02:52:05;101280.54;;;23.05;42.31
68863;BME280;73819;51.460;-1.012;2023-11-21T02:54:32;101284.47;;;22.84;42.26
68863;BME280;73819;51.460;-1.012;2023-11-21T02:56:59;101288.85;;;23.15;42.20
68863;BME280;73819;51.460;-1.012;2023-11-21T02:59:26;101290.31;;;23.13;42.29
68863;BME280;73819;51.460;-1.012;2023-11-21T03:01:52;101294.16;;;23.17;42.20
68863;BME280;73819;51.460;-1.012;2023-11-21T03:04:19;101299.07;;;22.88;42.30
68863;BME280;73819;51.460;-1.012;2023-11-21T03:06:46;101305.05;;;23.00;42.47
68863;BME280;73819;51.460;-1.012;2023-11-21T03:09:13;101310.20;;;22.91;42.64
68863;BME280;73819;51.460;-1.012;2023-11-21T03:11:39;101311.59;;;22.89;42.72
68863;BME280;73819;51.460;-1.012;2023-11-21T03:14:06;101310.64;;;22.84;42.77
68863;BME280;73819;51.460;-1.012;2023-11-21T03:16:33;101313.00;;;22.76;42.54
68863;BME280;73819;51.460;-1.012;2023-11-21T03:19:00;101311.12;;;22.80;42.48
68863;BME280;73819;51.460;-1.012;2023-11-21T03:21:27;101312.18;;;23.22;42.66
68863;BME280;73819;51.460;-1.012;2023-11-21T03:23:53;101314.80;;;22.72;42.67
68863;BME280;73819;51.460;-1.012;2023-11-21T03:26:20;101316.31;;;23.05;42.56
68863;BME280;73819;51.460;-1.012;2023-11-21T03:28:47;101320.54;;;22.99;42.63
68863;BME280;73819;51.460;-1.012;2023-11-21T03:31:14;101320.17;;;23.20;42.76
68863;BME280;73819;51.460;-1.012;2023-11-21T03:33:42;101320.49;;;22.91;42.73
68863;BME280;73819;51.460;-1.012;2023-11-21T03:36:09;101325.23;;;22.87;42.82
68863;BME280;73819;51.460;-1.012;2023-11-21T03:38:36;101334.08;;;22.86;42.80
68863;BME280;73819;51.460;-1.012;2023-11-21T03:41:05;101339.97;;;23.13;42.82
68863;BME280;73819;51.460;-1.012;2023-11-21T03:43:32;101343.41;;;22.97;42.75
68863;BME280;73819;51.460;-1.012;2023-11-21T03:45:58;101344.55;;;23.02;42.78
68863;BME280;73819;51.460;-1.012;2023-11-21T03:48:25;101352.79;;;22.95;42.77
68863;BME280;73819;51.460;-1.012;2023-11-21T03:50:52;101359.95;;;22.88;42.84
68863;BME280;73819;51.460;-1.012;2023-11-21T03:53:19;101366.90;;;22.87;42.92
68863;BME280;73819;51.460;-1.012;2023-11-21T03:55:45;101371.57;;;23.10;42.93
68863;BME280;73819;51.460;-1.012;2023-11-21T03:58:12;101373.78;;;22.82;42.91
68863;BME280;73819;51.460;-1.012;2023-11-21T04:00:39;101374.70;;;22.90;42.88
68863;BME280;73819;51.460;-1.012;2023-11-21T04:03:06;101379.98;;;22.88;42.98
68863;BME280;73819;51.460;-1.012;2023-11-21T04:05:32;101385.16;;;22.93;42.86
68863;BME280;73819;51.460;-1.012;2023-11-21T04:07:59;101390.66;;;22.72;42.89
68863;BME280;73819;51.460;-1.012;2023-11-21T04:10:26;101397.86;;;22.95;42.89
68863;BME280;73819;51.460;-1.012;2023-11-21T04:12:53;101403.61;;;22.98;42.89
68863;BME280;73819;51.460;-1.012;2023-11-21T04:15:19;101405.39;;;22.91;42.93
68863;BME280;73819;51.460;-1.012;2023-11-21T04:17:46;101407.45;;;22.50;42.96
68863;BME280;73819;51.460;-1.012;2023-11-21T04:20:13;101410.16;;;22.90;43.04
68863;BME280;73819;51.460;-1.012;2023-11-21T04:22:40;101411.76;;;22.82;42.95
68863;BME280;73819;51.460;-1.012;2023-11-21T04:25:08;101415.21;;;22.88;42.87
68863;BME280;73819;51.460;-1.012;2023-11-21T04:27:36;101415.03;;;22.65;42.91
68863;BME280;73819;51.460;-1.012;2023-11-21T04:30:04;101413.09;;;22.93;42.91
68863;BME280;73819;51.460;-1.012;2023-11-21T04:32:33;101413.02;;;22.97;42.88
68863;BME280;73819;51.460;-1.012;2023-11-21T04:35:00;101411.77;;;22.90;42.82
68863;BME280;73819;51.460;-1.012;2023-11-21T04:37:28;101408.29;;;22.77;43.04
68863;BME280;73819;51.460;-1.012;2023-11-21T04:39:55;101411.04;;;22.81;42.69
68863;BME280;73819;51.460;-1.012;2023-11-21T04:42:22;101417.30;;;22.64;42.59
68863;BME280;73819;51.460;-1.012;2023-11-21T04:44:49;101420.65;;;22.75;42.49
68863;BME280;73819;51.460;-1.012;2023-11-21T04:47:17;101425.15;;;23.23;42.41
68863;BME280;73819;51.460;-1.012;2023-11-21T04:49:43;101429.28;;;22.97;42.54
68863;BME280;73819;51.460;-1.012;2023-11-21T04:52:13;101429.57;;;23.00;42.78
68863;BME280;73819;51.460;-1.012;2023-11-21T04:54:40;101428.39;;;22.73;42.65
68863;BME280;73819;51.460;-1.012;2023-11-21T04:57:07;101435.65;;;22.88;42.66
68863;BME280;73819;51.460;-1.012;2023-11-21T04:59:34;101435.88;;;23.09;42.74
68863;BME280;73819;51.460;-1.012;2023-11-21T05:02:01;101435.75;;;22.98;42.83
68863;BME280;73819;51.460;-1.012;2023-11-21T05:04:28;101443.07;;;23.00;42.84
68863;BME280;73819;51.460;-1.012;2023-11-21T05:06:56;101449.63;;;22.95;42.88
68863;BME280;73819;51.460;-1.012;2023-11-21T05:09:23;101458.71;;;22.75;43.09
68863;BME280;73819;51.460;-1.012;2023-11-21T05:11:50;101457.54;;;23.02;42.81
68863;BME280;73819;51.460;-1.012;2023-11-21T05:14:17;101460.65;;;22.86;42.87
68863;BME280;73819;51.460;-1.012;2023-11-21T05:16:44;101463.21;;;23.16;42.89
68863;BME280;73819;51.460;-1.012;2023-11-21T05:19:10;101472.50;;;23.29;42.74
68863;BME280;73819;51.460;-1.012;2023-11-21T05:21:37;101481.81;;;22.51;42.78
68863;BME280;73819;51.460;-1.012;2023-11-21T05:24:05;101485.97;;;23.05;42.74
68863;BME280;73819;51.460;-1.012;2023-11-21T05:26:32;101490.98;;;22.98;42.81
68863;BME280;73819;51.460;-1.012;2023-11-21T05:28:59;101499.42;;;23.19;42.81
68863;BME280;73819;51.460;-1.012;2023-11-21T05:31:26;101509.44;;;22.83;42.90
68863;BME280;73819;51.460;-1.012;2023-11-21T05:33:52;101513.29;;;22.89;42.83
68863;BME280;73819;51.460;-1.012;2023-11-21T05:36:19;101522.95;;;22.90;42.96
68863;BME280;73819;51.460;-1.012;2023-11-21T05:38:47;101520.28;;;22.87;42.88
68863;BME280;73819;51.460;-1.012;2023-11-21T05:41:15;101519.64;;;22.83;42.65
68863;BME280;73819;51.460;-1.012;2023-11-21T05:43:43;101526.81;;;22.90;42.76
68863;BME280;73819;51.460;-1.012;2023-11-21T05:46:10;101533.26;;;23.08;42.68
68863;BME280;73819;51.460;-1.012;2023-11-21T05:48:36;101541.40;;;23.19;42.97
68863;BME280;73819;51.460;-1.012;2023-11-21T05:51:04;101543.24;;;22.96;42.97
68863;BME280;73819;51.460;-1.012;2023-11-21T05:53:31;101546.47;;;22.92;43.04
68863;BME280;73819;51.460;-1.012;2023-11-21T05:55:58;101552.82;;;22.93;43.10
68863;BME280;73819;51.460;-1.012;2023-11-21T05:58:25;101556.21;;;23.25;43.03
68863;BME280;73819;51.460;-1.012;2023-11-21T06:00:52;101562.36;;;22.84;43.13
68863;BME280;73819;51.460;-1.012;2023-11-21T06:03:19;101561.60;;;22.96;42.99
68863;BME280;73819;51.460;-1.012;2023-11-21T06:05:45;101565.46;;;22.96;42.90
68863;BME280;73819;51.460;-1.012;2023-11-21T06:08:12;101565.41;;;22.66;43.00
68863;BME280;73819;51.460;-1.012;2023-11-21T06:10:39;101566.94;;;22.88;43.00
68863;BME280;73819;51.460;-1.012;2023-11-21T06:13:06;101569.28;;;22.85;42.86
68863;BME280;73819;51.460;-1.012;2023-11-21T06:15:32;101570.85;;;22.93;42.75
68863;BME280;73819;51.460;-1.012;2023-11-21T06:17:59;101572.62;;;22.94;42.75
68863;BME280;73819;51.460;-1.012;2023-11-21T06:20:27;101577.74;;;23.14;42.71
68863;BME280;73819;51.460;-1.012;2023-11-21T06:22:54;101575.64;;;22.92;42.68
68863;BME280;73819;51.460;-1.012;2023-11-21T06:25:22;101574.14;;;22.90;42.82
68863;BME280;73819;51.460;-1.012;2023-11-21T06:27:49;101575.52;;;22.93;42.70
68863;BME280;73819;51.460;-1.012;2023-11-21T06:30:16;101576.29;;;22.83;42.82
68863;BME280;73819;51.460;-1.012;2023-11-21T06:32:44;101581.58;;;22.57;43.20
68863;BME280;73819;51.460;-1.012;2023-11-21T06:35:11;101585.84;;;22.77;43.12
68863;BME280;73819;51.460;-1.012;2023-11-21T06:37:38;101591.15;;;22.70;42.97
68863;BME280;73819;51.460;-1.012;2023-11-21T06:40:06;101591.78;;;22.87;42.96
68863;BME280;73819;51.460;-1.012;2023-11-21T06:42:33;101602.07;;;22.93;43.06
68863;BME280;73819;51.460;-1.012;2023-11-21T06:45:00;101609.10;;;23.16;43.03
68863;BME280;73819;51.460;-1.012;2023-11-21T06:47:28;101614.17;;;22.84;42.93
68863;BME280;73819;51.460;-1.012;2023-11-21T06:49:55;101617.97;;;22.85;42.92
68863;BME280;73819;51.460;-1.012;2023-11-21T06:52:22;101619.18;;;22.86;43.09
68863;BME280;73819;51.460;-1.012;2023-11-21T06:54:49;101624.89;;;22.86;43.03
68863;BME280;73819;51.460;-1.012;2023-11-21T06:57:16;101629.15;;;23.22;42.67
68863;BME280;73819;51.460;-1.012;2023-11-21T06:59:43;101636.63;;;22.94;42.74
68863;BME280;73819;51.460;-1.012;2023-11-21T07:02:10;101642.38;;;22.93;42.77
68863;BME280;73819;51.460;-1.012;2023-11-21T07:04:37;101647.10;;;22.89;42.82
68863;BME280;73819;51.460;-1.012;2023-11-21T07:07:04;101651.19;;;23.12;43.08
68863;BME280;73819;51.460;-1.012;2023-11-21T07:09:31;101656.34;;;22.88;42.89
68863;BME280;73819;51.460;-1.012;2023-11-21T07:11:58;101655.40;;;22.85;42.82
68863;BME280;73819;51.460;-1.012;2023-11-21T07:14:26;101659.83;;;22.86;42.97
68863;BME280;73819;51.460;-1.012;2023-11-21T07:16:52;101659.92;;;22.97;42.66
68863;BME280;73819;51.460;-1.012;2023-11-21T07:19:19;101665.65;;;23.05;42.54
68863;BME280;73819;51.460;-1.012;2023-11-21T07:21:46;101670.94;;;22.97;42.63
68863;BME280;73819;51.460;-1.012;2023-11-21T07:24:13;101674.23;;;22.97;42.71
68863;BME280;73819;51.460;-1.012;2023-11-21T07:26:39;101675.97;;;22.90;42.77
68863;BME280;73819;51.460;-1.012;2023-11-21T07:29:06;101683.47;;;22.93;42.85
68863;BME280;73819;51.460;-1.012;2023-11-21T07:31:34;101686.39;;;22.85;42.86
68863;BME280;73819;51.460;-1.012;2023-11-21T07:34:01;101693.39;;;22.84;42.85
68863;BME280;73819;51.460;-1.012;2023-11-21T07:36:28;101692.02;;;23.14;42.75
68863;BME280;73819;51.460;-1.012;2023-11-21T07:38:55;101695.38;;;22.75;42.86
68863;BME280;73819;51.460;-1.012;2023-11-21T07:41:21;101699.56;;;22.89;42.77
68863;BME280;73819;51.460;-1.012;2023-11-21T07:43:48;101700.93;;;22.92;42.73
68863;BME280;73819;51.460;-1.012;2023-11-21T07:46:15;101705.50;;;22.90;42.78
68863;BME280;73819;51.460;-1.012;2023-11-21T07:48:42;101709.37;;;22.83;42.92
68863;BME280;73819;51.460;-1.012;2023-11-21T07:51:10;101715.00;;;23.07;43.00
68863;BME280;73819;51.460;-1.012;2023-11-21T07:53:37;101716.01;;;22.86;42.99
68863;BME280;73819;51.460;-1.012;2023-11-21T07:56:05;101720.90;;;22.86;42.86
68863;BME280;73819;51.460;-1.012;2023-11-21T07:58:32;101724.54;;;22.83;42.89
68863;BME280;73819;51.460;-1.012;2023-11-21T08:00:59;101727.92;;;22.79;42.95
68863;BME280;73819;51.460;-1.012;2023-11-21T08:03:26;101732.82;;;22.78;42.92
68863;BME280;73819;51.460;-1.012;2023-11-21T08:05:53;101734.83;;;22.86;42.94
68863;BME280;73819;51.460;-1.012;2023-11-21T08:08:20;101742.85;;;22.80;43.03
68863;BME280;73819;51.460;-1.012;2023-11-21T08:10:47;101744.99;;;22.82;43.00
68863;BME280;73819;51.460;-1.012;2023-11-21T08:13:13;101747.23;;;22.78;42.86
68863;BME280;73819;51.460;-1.012;2023-11-21T08:15:41;101749.72;;;22.93;42.82
68863;BME280;73819;51.460;-1.012;2023-11-21T08:18:09;101753.54;;;22.85;42.89
68863;BME280;73819;51.460;-1.012;2023-11-21T08:20:36;101756.71;;;22.87;42.85
68863;BME280;73819;51.460;-1.012;2023-11-21T08:23:03;101756.23;;;23.10;43.01
68863;BME280;73819;51.460;-1.012;2023-11-21T08:25:30;101756.79;;;22.81;43.02
68863;BME280;73819;51.460;-1.012;2023-11-21T08:27:57;101759.80;;;22.75;43.02
68863;BME280;73819;51.460;-1.012;2023-11-21T08:30:24;101760.88;;;23.12;43.00
68863;BME280;73819;51.460;-1.012;2023-11-21T08:32:52;101764.91;;;22.80;42.98
68863;BME280;73819;51.460;-1.012;2023-11-21T08:35:18;101765.27;;;22.77;43.16
68863;BME280;73819;51.460;-1.012;2023-11-21T08:37:45;101771.37;;;22.81;43.01
68863;BME280;73819;51.460;-1.012;2023-11-21T08:40:12;101775.48;;;23.11;43.01
68863;BME280;73819;51.460;-1.012;2023-11-21T08:42:40;101780.57;;;22.87;43.03
68863;BME280;73819;51.460;-1.012;2023-11-21T08:45:07;101780.20;;;23.18;42.79
68863;BME280;73819;51.460;-1.012;2023-11-21T08:47:35;101782.94;;;22.93;42.80
68863;BME280;73819;51.460;-1.012;2023-11-21T08:50:02;101788.83;;;23.09;42.79
68863;BME280;73819;51.460;-1.012;2023-11-21T08:52:29;101789.08;;;23.01;42.88
68863;BME280;73819;51.460;-1.012;2023-11-21T08:54:56;101796.29;;;22.77;43.09
68863;BME280;73819;51.460;-1.012;2023-11-21T08:57:23;101800.96;;;22.60;42.99
68863;BME280;73819;51.460;-1.012;2023-11-21T08:59:49;101808.53;;;22.74;43.05
68863;BME280;73819;51.460;-1.012;2023-11-21T09:02:16;101814.74;;;22.89;42.87
68863;BME280;73819;51.460;-1.012;2023-11-21T09:04:43;101823.14;;;22.78;43.03
68863;BME280;73819;51.460;-1.012;2023-11-21T09:07:09;101822.19;;;22.81;42.79
68863;BME280;73819;51.460;-1.012;2023-11-21T09:09:36;101828.58;;;22.58;42.84
68863;BME280;73819;51.460;-1.012;2023-11-21T09:12:04;101829.22;;;22.53;42.91
68863;BME280;73819;51.460;-1.012;2023-11-21T09:14:31;101829.40;;;22.80;42.83
68863;BME280;73819;51.460;-1.012;2023-11-21T09:16:57;101831.16;;;22.77;42.88
68863;BME280;73819;51.460;-1.012;2023-11-21T09:19:24;101829.04;;;22.77;42.86
68863;BME280;73819;51.460;-1.012;2023-11-21T09:21:51;101838.88;;;23.14;42.75
68863;BME280;73819;51.460;-1.012;2023-11-21T09:24:18;101842.55;;;22.72;43.08
68863;BME280;73819;51.460;-1.012;2023-11-21T09:26:44;101841.49;;;22.45;42.78
68863;BME280;73819;51.460;-1.012;2023-11-21T09:29:11;101843.56;;;22.74;42.64
68863;BME280;73819;51.460;-1.012;2023-11-21T09:31:38;101839.82;;;22.99;42.57
68863;BME280;73819;51.460;-1.012;2023-11-21T09:34:04;101836.59;;;22.78;42.54
68863;BME280;73819;51.460;-1.012;2023-11-21T09:36:31;101837.84;;;22.91;42.68
68863;BME280;73819;51.460;-1.012;2023-11-21T09:38:58;101841.53;;;22.76;42.56
68863;BME280;73819;51.460;-1.012;2023-11-21T09:41:31;101843.93;;;22.91;42.65
68863;BME280;73819;51.460;-1.012;2023-11-21T09:44:03;101844.48;;;22.90;42.66
68863;BME280;73819;51.460;-1.012;2023-11-21T09:46:33;101846.27;;;22.86;42.75
68863;BME280;73819;51.460;-1.012;2023-11-21T09:49:02;101851.07;;;22.86;42.68
68863;BME280;73819;51.460;-1.012;2023-11-21T09:51:31;101850.55;;;22.85;42.70
68863;BME280;73819;51.460;-1.012;2023-11-21T09:53:59;101850.85;;;22.82;42.72
68863;BME280;73819;51.460;-1.012;2023-11-21T09:56:28;101857.84;;;22.86;42.71
68863;BME280;73819;51.460;-1.012;2023-11-21T09:58:55;101866.17;;;22.84;42.86
68863;BME280;73819;51.460;-1.012;2023-11-21T10:01:23;101869.05;;;22.61;42.86
68863;BME280;73819;51.460;-1.012;2023-11-21T10:03:52;101871.65;;;22.89;42.73
68863;BME280;73819;51.460;-1.012;2023-11-21T10:06:19;101873.61;;;22.86;42.86
68863;BME280;73819;51.460;-1.012;2023-11-21T10:08:46;101874.95;;;22.77;42.92
68863;BME280;73819;51.460;-1.012;2023-11-21T10:11:15;101882.79;;;22.13;43.78
68863;BME280;73819;51.460;-1.012;2023-11-21T10:13:45;101883.19;;;22.90;43.26
68863;BME280;73819;51.460;-1.012;2023-11-21T10:16:14;101882.36;;;23.03;43.23
68863;BME280;73819;51.460;-1.012;2023-11-21T10:18:43;101887.00;;;22.97;43.16
68863;BME280;73819;51.460;-1.012;2023-11-21T10:21:11;101892.08;;;22.85;43.16
68863;BME280;73819;51.460;-1.012;2023-11-21T10:23:38;101889.21;;;22.84;43.27
68863;BME280;73819;51.460;-1.012;2023-11-21T10:26:06;101893.86;;;22.88;43.27
68863;BME280;73819;51.460;-1.012;2023-11-21T10:28:38;101894.57;;;22.79;43.39
68863;BME280;73819;51.460;-1.012;2023-11-21T10:31:06;101894.88;;;22.91;43.28
68863;BME280;73819;51.460;-1.012;2023-11-21T10:33:34;101897.02;;;23.08;43.47
68863;BME280;73819;51.460;-1.012;2023-11-21T10:36:00;101893.95;;;22.91;43.33
68863;BME280;73819;51.460;-1.012;2023-11-21T10:38:27;101896.86;;;22.93;43.44
68863;BME280;73819;51.460;-1.012;2023-11-21T10:40:54;101902.67;;;22.96;43.37
68863;BME280;73819;51.460;-1.012;2023-11-21T10:43:25;101903.13;;;22.90;43.40
68863;BME280;73819;51.460;-1.012;2023-11-21T10:45:52;101906.02;;;22.92;43.34
68863;BME280;73819;51.460;-1.012;2023-11-21T10:48:20;101907.16;;;22.66;43.44
68863;BME280;73819;51.460;-1.012;2023-11-21T10:50:48;101907.81;;;22.92;43.61
68863;BME280;73819;51.460;-1.012;2023-11-21T10:53:15;101911.81;;;22.72;43.43
68863;BME280;73819;51.460;-1.012;2023-11-21T10:55:42;101912.89;;;22.72;43.56
68863;BME280;73819;51.460;-1.012;2023-11-21T10:58:11;101913.13;;;23.24;43.45
68863;BME280;73819;51.460;-1.012;2023-11-21T11:00:40;101913.08;;;22.89;43.69
68863;BME280;73819;51.460;-1.012;2023-11-21T11:03:08;101909.67;;;22.93;43.50
68863;BME280;73819;51.460;-1.012;2023-11-21T11:05:36;101911.10;;;22.76;43.46
68863;BME280;73819;51.460;-1.012;2023-11-21T11:08:05;101911.00;;;22.86;43.64
68863;BME280;73819;51.460;-1.012;2023-11-21T11:10:32;101910.17;;;22.77;43.44
68863;BME280;73819;51.460;-1.012;2023-11-21T11:12:59;101907.04;;;22.92;43.57
68863;BME280;73819;51.460;-1.012;2023-11-21T11:15:27;101907.22;;;22.91;43.55
68863;BME280;73819;51.460;-1.012;2023-11-21T11:17:55;101912.90;;;22.92;43.60
68863;BME280;73819;51.460;-1.012;2023-11-21T11:20:23;101916.80;;;22.84;43.66
68863;BME280;73819;51.460;-1.012;2023-11-21T11:23:07;101913.23;;;22.92;43.74
68863;BME280;73819;51.460;-1.012;2023-11-21T11:25:49;101914.74;;;23.08;43.51
68863;BME280;73819;51.460;-1.012;2023-11-21T11:28:21;101918.42;;;23.23;43.29
68863;BME280;73819;51.460;-1.012;2023-11-21T11:31:04;101912.90;;;23.08;43.38
68863;BME280;73819;51.460;-1.012;2023-11-21T11:33:38;101912.50;;;23.13;43.37
68863;BME280;73819;51.460;-1.012;2023-11-21T11:36:13;101914.98;;;22.86;43.34
68863;BME280;73819;51.460;-1.012;2023-11-21T11:38:46;101917.52;;;22.67;43.38
68863;BME280;73819;51.460;-1.012;2023-11-21T11:41:13;101923.19;;;23.02;43.48
68863;BME280;73819;51.460;-1.012;2023-11-21T11:43:50;101925.03;;;22.94;43.59
68863;BME280;73819;51.460;-1.012;2023-11-21T11:46:18;101928.29;;;22.93;43.70
68863;BME280;73819;51.460;-1.012;2023-11-21T11:48:45;101929.05;;;22.98;43.54
68863;BME280;73819;51.460;-1.012;2023-11-21T11:51:14;101930.89;;;22.83;43.43
68863;BME280;73819;51.460;-1.012;2023-11-21T11:53:42;101932.11;;;22.60;43.48
68863;BME280;73819;51.460;-1.012;2023-11-21T11:56:26;101931.93;;;23.08;43.44
68863;BME280;73819;51.460;-1.012;2023-11-21T11:58:55;101931.07;;;22.73;43.53
68863;BME280;73819;51.460;-1.012;2023-11-21T12:01:24;101934.06;;;22.99;43.64
68863;BME280;73819;51.460;-1.012;2023-11-21T12:04:27;101937.58;;;22.94;43.59
68863;BME280;73819;51.460;-1.012;2023-11-21T12:06:55;101942.41;;;22.92;43.75
68863;BME280;73819;51.460;-1.012;2023-11-21T12:09:22;101946.75;;;22.80;43.55
68863;BME280;73819;51.460;-1.012;2023-11-21T12:11:50;101953.55;;;23.14;43.44
68863;BME280;73819;51.460;-1.012;2023-11-21T12:14:18;101962.27;;;23.04;43.55
68863;BME280;73819;51.460;-1.012;2023-11-21T12:16:45;101962.02;;;22.93;43.71
68863;BME280;73819;51.460;-1.012;2023-11-21T12:19:13;101970.19;;;22.70;43.68
68863;BME280;73819;51.460;-1.012;2023-11-21T12:21:41;101974.88;;;23.03;43.58
68863;BME280;73819;51.460;-1.012;2023-11-21T12:24:08;101979.26;;;22.82;43.57
68863;BME280;73819;51.460;-1.012;2023-11-21T12:26:36;101977.52;;;23.15;43.51
68863;BME280;73819;51.460;-1.012;2023-11-21T12:29:03;101975.37;;;23.04;43.54
68863;BME280;73819;51.460;-1.012;2023-11-21T12:31:31;101989.41;;;22.89;43.50
68863;BME280;73819;51.460;-1.012;2023-11-21T12:33:57;101987.78;;;22.90;43.52
68863;BME280;73819;51.460;-1.012;2023-11-21T12:36:24;101999.59;;;22.94;43.75
68863;BME280;73819;51.460;-1.012;2023-11-21T12:38:52;102002.13;;;22.84;43.59
68863;BME280;73819;51.460;-1.012;2023-11-21T12:41:19;102008.58;;;22.95;43.52